• Join FlightAware (Why Join?)
  • Login
  • US Flag GB Flag 
20:36 EDT


 

Airport Tracker/Info


-or-


 

Live Flight TrackerFlight Track Log ✈ RPA3321 ✈ 30-Apr-2013 ✈ KALB - KDCA

Flight Track Log - Related Links

Times and Time Zones

All times are in EDT time to prevent confusion due to time zone crossing. See the RPA3321 flight status page for this flight to view local times or setup timezone preferences in your user account.

Time Position Orientation Groundspeed Altitude Reporting Facility
EDT Latitude Longitude Course Direction KTS MPH feet Rate Location/Type
05:36 42.7694 -73.8089 119° Southeast 165 190 1,200  Level Boston Center
05:37 42.8086 -73.8381 331° Northwest 210 242 2,900 2,640 Climbing Boston Center
05:38 42.8494 -73.9100 308° West 253 291 6,000 2,880 Climbing Boston Center
05:38 42.8678 -73.9442 306° West 261 300 6,700 2,880 Climbing Boston Center
05:39 42.4373 -74.0783 180° South  Level Estimated
05:39 42.9003 -74.0017 308° West 281 323 9,700  Level Boston Center
05:40 42.3593 -74.1470 172° South  Level Estimated
05:40 42.9531 -74.1025 306° West 294 338 12,300  Level Boston Center
05:41 42.3139 -74.0371 119° Southeast  Level FlightAware Approximate
05:41 42.9186 -74.1836 240° Southwest 269 310 14,200  Level Boston Center
05:42 42.8253 -74.1472 164° South 249 287 16,600 1,980 Climbing Boston Center
05:43 42.7425 -74.1053 160° South 322 371 18,200 1,680 Climbing Boston Center
05:44 42.6392 -74.0517 159° South 352 405 20,000 1,740 Climbing Boston Center
05:45 42.5417 -74.0042 160° South 366 421 21,700 1,620 Climbing Boston Center
05:46 42.4383 -73.9481 158° South 384 442 23,300 1,500 Climbing Boston Center
05:47 42.3306 -73.8919 159° South 403 464 24,800 1,320 Climbing Boston Center
05:48 42.2208 -73.8389 160° South 414 476 26,000 600 Climbing Boston Center
05:49 42.1167 -73.8283 176° South 414 476 26,000  Level Boston Center
05:50 42.0078 -73.8761 198° South 407 468 26,000  Level Boston Center
05:51 41.8989 -73.9239 198° South 407 468 26,000  Level Boston Center
05:53 41.7214 -73.9978 197° South 417 480 26,000  Level New York Center
05:54 41.6117 -74.0478 199° South 417 480 26,000  Level New York Center
05:55 41.5222 -74.1264 213° Southwest 404 465 26,000  Level New York Center
05:56 41.4381 -74.2275 222° Southwest 402 463 26,000  Level New York Center
05:57 41.3517 -74.3281 221° Southwest 409 471 26,000  Level New York Center
05:58 41.2569 -74.4306 219° Southwest 415 478 26,000  Level New York Center
05:59 41.1706 -74.5250 219° Southwest 415 478 26,000  Level New York Center
06:00 41.0842 -74.6278 222° Southwest 415 478 26,000  Level New York Center
06:01 40.9994 -74.7272 222° Southwest 415 478 26,000  Level New York Center
06:02 40.9131 -74.8183 219° Southwest 415 478 26,000  Level New York Center
06:03 40.8286 -74.9147 221° Southwest 415 478 26,000  Level New York Center
06:04 40.7436 -75.0139 221° Southwest 408 470 26,000  Level New York Center
06:05 40.6592 -75.1042 219° Southwest 401 461 26,000  Level New York Center
06:06 40.5764 -75.2003 221° Southwest 401 461 26,000  Level New York Center
06:07 40.4894 -75.2983 221° Southwest 401 461 26,000 -60 Level New York Center
06:08 40.4022 -75.3933 220° Southwest 401 461 25,900 -660 Descending New York Center
06:09 40.3172 -75.4858 220° Southwest 395 455 24,800 -1,260 Descending New York Center
06:10 40.2367 -75.5753 220° Southwest 395 455 23,400 -1,440 Descending New York Center
06:11 40.1536 -75.6675 220° Southwest 395 455 22,000 -720 Descending New York Center
06:12 40.0728 -75.7539 219° Southwest 390 449 22,000  Level New York Center
06:13 39.9942 -75.8406 220° Southwest 390 449 22,000 -300 Level New York Center
06:14 39.9067 -75.9342 219° Southwest 390 449 21,400 -1,560 Descending New York Center
06:17 39.7728 -76.0767 241° Southwest  Level Estimated
06:18 39.6000 -76.2667 241° Southwest 354 407 14,500  Level Potomac TRACON
06:19 39.5167 -76.3500 218° Southwest 339 390 12,800 -1,680 Descending Potomac TRACON
06:20 39.4500 -76.4167 218° Southwest 336 387 11,200 -960 Descending Potomac TRACON
06:21 39.3833 -76.4833 218° Southwest 333 383 11,000 -120 Descending Potomac TRACON
06:22 39.3000 -76.5500 212° Southwest 333 383 11,000  Level Potomac TRACON
06:23 39.2333 -76.6167 218° Southwest 320 368 11,000 -540 Level Potomac TRACON
06:24 39.1667 -76.6667 210° Southwest 297 342 10,000 -600 Descending Potomac TRACON
06:24 39.1167 -76.7333 226° Southwest 295 339 10,000 -60 Level Potomac TRACON
06:25 39.0500 -76.8000 218° Southwest 294 338 9,900 -900 Descending Potomac TRACON
06:26 39.0000 -76.8667 226° Southwest 293 337 8,400 -1,800 Descending Potomac TRACON
06:27 38.9500 -76.9167 218° Southwest 282 325 6,700 -1,200 Descending Potomac TRACON
06:28 38.8667 -76.9500 197° South 243 280 6,000 -360 Descending Potomac TRACON
06:29 38.8167 -76.9500 180° South 239 275 6,000 -180 Level Potomac TRACON
06:30 38.7500 -76.9500 180° South 230 265 5,700 -780 Descending Potomac TRACON
06:31 38.7000 -76.9333 165° South 220 253 4,600 -1,320 Descending Potomac TRACON
06:32 38.6667 -76.9833 230° Southwest 231 266 3,200 -1,080 Descending Potomac TRACON
06:33 38.7000 -77.0167 322° Northwest 202 232 2,500 -720 Descending Potomac TRACON
06:34 38.7500 -77.0333 345° North 190 219 1,800 -780 Descending Potomac TRACON
06:35 38.8000 -77.0333 360° North 136 157 1,000 -900 Descending Potomac TRACON